Time;durP1;ratioP1;P1;durP2;ratioP2;P2;SDS_P1;SDS_P2;PMS_P1;PMS_P2;Temp;Humidity;BMP_temperature;BMP_pressure;BME280_temperature;BME280_humidity;BME280_pressure;Samples;Min_cycle;Max_cycle;Signal;HPM_P1;HPM_P2
2023/10/25 00:00:40;;;;;;;23.40;13.80;;;;;;;;;;5024427;28;20105;-65
2023/10/25 00:03:06;;;;;;;22.63;13.55;;;;;;;;;;5027278;28;20039;-64
2023/10/25 00:05:32;;;;;;;24.23;13.93;;;;;;;;;;5030193;28;20470;-64
2023/10/25 00:07:58;;;;;;;25.50;14.90;;;;;;;;;;5031447;28;20526;-64
2023/10/25 00:10:23;;;;;;;20.58;13.55;;;;;;;;;;5029656;28;20029;-65
2023/10/25 00:12:48;;;;;;;25.52;14.32;;;;;;;;;;5028762;28;20497;-65
2023/10/25 00:15:13;;;;;;;30.55;14.88;;;;;;;;;;5028205;28;20485;-66
2023/10/25 00:17:39;;;;;;;25.13;15.05;;;;;;;;;;5029309;28;20488;-65
2023/10/25 00:20:04;;;;;;;27.65;15.32;;;;;;;;;;5028957;28;20476;-61
2023/10/25 00:22:29;;;;;;;28.00;13.73;;;;;;;;;;5029078;28;20026;-66
2023/10/25 00:24:55;;;;;;;21.20;13.35;;;;;;;;;;5029800;28;20029;-65
2023/10/25 00:27:20;;;;;;;25.20;13.15;;;;;;;;;;5025740;28;20018;-66
2023/10/25 00:29:45;;;;;;;25.10;13.85;;;;;;;;;;5028768;28;20531;-65
2023/10/25 00:32:14;;;;;;;23.60;12.43;;;;;;;;;;5012502;28;20025;-66
2023/10/25 00:34:39;;;;;;;;;;;;;;;;;;5030192;28;20028;-65
2023/10/25 00:37:04;;;;;;;20.60;12.10;;;;;;;;;;5029255;28;19908;-65
2023/10/25 00:39:30;;;;;;;17.52;10.90;;;;;;;;;;5030487;28;20056;-66
2023/10/25 00:41:55;;;;;;;19.77;11.18;;;;;;;;;;5029989;28;20555;-65
2023/10/25 00:44:20;;;;;;;20.83;11.25;;;;;;;;;;5030019;28;20017;-65
2023/10/25 00:46:47;;;;;;;22.83;12.88;;;;;;;;;;5028388;28;20013;-63
2023/10/25 00:49:12;;;;;;;21.52;10.40;;;;;;;;;;5028006;28;20024;-66
2023/10/25 00:51:37;;;;;;;25.30;11.25;;;;;;;;;;5028221;28;20388;-65
2023/10/25 00:54:03;;;;;;;20.13;10.05;;;;;;;;;;5020013;28;20021;-62
2023/10/25 00:56:29;;;;;;;26.45;11.95;;;;;;;;;;5027290;28;20083;-65
2023/10/25 00:58:55;;;;;;;21.65;11.05;;;;;;;;;;5028404;28;20088;-61
2023/10/25 01:01:21;;;;;;;20.88;11.75;;;;;;;;;;5026885;28;20404;-65
2023/10/25 01:03:47;;;;;;;19.17;11.45;;;;;;;;;;5027396;28;20049;-66
2023/10/25 01:06:12;;;;;;;21.10;12.38;;;;;;;;;;5028387;28;20836;-64
2023/10/25 01:08:38;;;;;;;22.13;12.07;;;;;;;;;;5025956;28;20109;-65
2023/10/25 01:11:03;;;;;;;20.90;12.27;;;;;;;;;;5026539;28;20016;-66
2023/10/25 01:13:28;;;;;;;24.05;11.38;;;;;;;;;;5030409;28;20021;-66
2023/10/25 01:15:53;;;;;;;21.58;13.20;;;;;;;;;;5029035;28;20501;-66
2023/10/25 01:18:19;;;;;;;25.02;12.93;;;;;;;;;;5028291;28;20626;-66
2023/10/25 01:20:44;;;;;;;20.15;13.43;;;;;;;;;;5027149;28;20040;-61
2023/10/25 01:23:10;;;;;;;21.90;13.50;;;;;;;;;;5026827;28;20079;-65
2023/10/25 01:25:35;;;;;;;25.90;13.35;;;;;;;;;;5027020;28;20096;-65
2023/10/25 01:28:00;;;;;;;22.88;12.68;;;;;;;;;;5023553;28;20029;-64
2023/10/25 01:30:26;;;;;;;20.27;12.20;;;;;;;;;;5028104;28;20017;-65
2023/10/25 01:32:52;;;;;;;15.95;10.68;;;;;;;;;;5029204;28;20018;-62
2023/10/25 01:35:17;;;;;;;17.17;10.05;;;;;;;;;;5026914;28;20061;-65
2023/10/25 01:37:42;;;;;;;17.15;10.55;;;;;;;;;;5026579;28;20033;-64
2023/10/25 01:40:08;;;;;;;14.73;9.45;;;;;;;;;;5027275;28;20473;-65
2023/10/25 01:42:33;;;;;;;14.10;8.85;;;;;;;;;;5027515;28;20477;-63
2023/10/25 01:45:01;;;;;;;15.10;9.68;;;;;;;;;;5026467;28;20033;-62
2023/10/25 01:47:26;;;;;;;14.73;8.88;;;;;;;;;;5027029;28;20014;-64
2023/10/25 01:49:51;;;;;;;15.65;8.43;;;;;;;;;;5027228;28;20539;-62
2023/10/25 01:52:16;;;;;;;15.73;8.75;;;;;;;;;;5026825;28;20037;-66
2023/10/25 01:54:42;;;;;;;17.17;8.32;;;;;;;;;;5028912;28;20071;-64
2023/10/25 01:57:07;;;;;;;14.82;9.02;;;;;;;;;;5028202;28;20092;-65
2023/10/25 01:59:32;;;;;;;12.23;7.68;;;;;;;;;;5027293;28;20464;-63
2023/10/25 02:01:58;;;;;;;11.63;7.10;;;;;;;;;;5026777;28;20045;-65
2023/10/25 02:04:23;;;;;;;13.63;7.63;;;;;;;;;;5027595;28;20049;-65
2023/10/25 02:06:51;;;;;;;17.13;6.80;;;;;;;;;;5027156;28;20071;-65
2023/10/25 02:09:17;;;;;;;14.32;7.10;;;;;;;;;;5021190;28;20473;-66
2023/10/25 02:11:42;;;;;;;12.10;7.35;;;;;;;;;;5026683;28;20148;-65
2023/10/25 02:14:07;;;;;;;12.50;6.97;;;;;;;;;;5027051;28;20017;-65
2023/10/25 02:16:32;;;;;;;14.23;7.18;;;;;;;;;;5027320;28;20017;-64
2023/10/25 02:18:58;;;;;;;14.90;7.53;;;;;;;;;;5025549;28;20714;-64
2023/10/25 02:21:23;;;;;;;11.90;7.10;;;;;;;;;;5028285;28;20029;-63
2023/10/25 02:23:48;;;;;;;11.13;6.43;;;;;;;;;;5028752;28;20083;-64
2023/10/25 02:26:13;;;;;;;12.35;6.07;;;;;;;;;;5028116;28;20033;-64
2023/10/25 02:28:38;;;;;;;12.15;6.75;;;;;;;;;;5028967;28;20025;-64
2023/10/25 02:31:04;;;;;;;12.73;6.53;;;;;;;;;;5029108;28;20021;-65
2023/10/25 02:33:29;;;;;;;12.93;6.35;;;;;;;;;;5029498;28;20021;-63
2023/10/25 02:35:54;;;;;;;10.23;6.25;;;;;;;;;;5027736;28;20071;-65
2023/10/25 02:38:19;;;;;;;10.45;6.15;;;;;;;;;;5028970;28;20033;-63
2023/10/25 02:40:45;;;;;;;12.38;6.50;;;;;;;;;;5030147;28;20111;-64
2023/10/25 02:43:10;;;;;;;11.70;6.68;;;;;;;;;;5009870;28;20030;-64
2023/10/25 02:45:35;;;;;;;11.07;6.70;;;;;;;;;;5026655;28;20014;-64
2023/10/25 02:48:00;;;;;;;15.07;8.55;;;;;;;;;;5027286;28;20083;-62
2023/10/25 02:50:25;;;;;;;15.85;8.27;;;;;;;;;;5027224;28;20026;-64
2023/10/25 02:52:51;;;;;;;15.57;9.75;;;;;;;;;;5026466;28;20033;-64
2023/10/25 02:55:16;;;;;;;19.10;9.75;;;;;;;;;;5025594;28;20018;-64
2023/10/25 02:57:42;;;;;;;16.70;9.85;;;;;;;;;;5027571;28;20029;-64
2023/10/25 03:00:10;;;;;;;18.02;9.90;;;;;;;;;;5027874;28;20017;-63
2023/10/25 03:02:35;;;;;;;19.17;9.80;;;;;;;;;;5026931;28;20021;-65
2023/10/25 03:05:00;;;;;;;17.20;9.80;;;;;;;;;;5026424;28;20032;-62
2023/10/25 03:07:26;;;;;;;16.40;9.85;;;;;;;;;;5025931;28;20014;-65
2023/10/25 03:09:51;;;;;;;24.30;10.27;;;;;;;;;;5028405;28;20049;-63
2023/10/25 03:12:16;;;;;;;15.95;10.27;;;;;;;;;;5028322;28;20600;-64
2023/10/25 03:14:41;;;;;;;16.38;9.80;;;;;;;;;;5029596;28;20022;-65
2023/10/25 03:17:06;;;;;;;16.92;9.38;;;;;;;;;;5027799;28;20455;-65
2023/10/25 03:19:32;;;;;;;17.00;9.73;;;;;;;;;;5027903;28;20017;-63
2023/10/25 03:21:58;;;;;;;16.33;9.88;;;;;;;;;;5026845;28;20025;-62
2023/10/25 03:24:23;;;;;;;18.27;11.27;;;;;;;;;;5028983;28;20082;-65
2023/10/25 03:26:48;;;;;;;17.83;11.00;;;;;;;;;;5031053;28;20025;-64
2023/10/25 03:29:14;;;;;;;21.63;11.25;;;;;;;;;;5013380;28;20029;-64
2023/10/25 03:31:39;;;;;;;17.88;10.02;;;;;;;;;;5032378;28;20032;-62
2023/10/25 03:34:05;;;;;;;22.42;11.50;;;;;;;;;;5032586;28;20036;-63
2023/10/25 03:36:30;;;;;;;17.83;10.52;;;;;;;;;;5023828;28;20021;-65
2023/10/25 03:38:55;;;;;;;20.35;10.77;;;;;;;;;;5030505;28;20028;-64
2023/10/25 03:41:20;;;;;;;20.63;11.15;;;;;;;;;;5031218;28;20038;-63
2023/10/25 03:43:46;;;;;;;21.25;11.38;;;;;;;;;;5031835;28;20021;-65
2023/10/25 03:46:11;;;;;;;24.52;12.65;;;;;;;;;;5012901;28;20590;-65
2023/10/25 03:48:37;;;;;;;17.58;10.23;;;;;;;;;;5031579;28;20523;-63
2023/10/25 03:51:03;;;;;;;19.85;11.48;;;;;;;;;;5032652;28;20041;-65
2023/10/25 03:53:29;;;;;;;20.92;11.18;;;;;;;;;;5022485;28;20026;-62
2023/10/25 03:55:57;;;;;;;22.85;12.68;;;;;;;;;;5030400;28;20032;-65
2023/10/25 03:58:23;;;;;;;19.73;11.95;;;;;;;;;;5030685;28;20024;-64
2023/10/25 04:00:48;;;;;;;19.67;11.13;;;;;;;;;;5030409;28;20030;-63
2023/10/25 04:03:14;;;;;;;21.10;11.30;;;;;;;;;;5029837;28;20399;-65
2023/10/25 04:05:39;;;;;;;20.10;11.77;;;;;;;;;;5025290;28;20018;-64
2023/10/25 04:08:05;;;;;;;25.13;11.85;;;;;;;;;;5027183;28;20096;-64
2023/10/25 04:10:30;;;;;;;27.60;12.60;;;;;;;;;;5014158;28;20100;-64
2023/10/25 04:12:55;;;;;;;20.05;11.02;;;;;;;;;;5030644;28;20400;-65
2023/10/25 04:15:20;;;;;;;21.05;11.00;;;;;;;;;;5025063;28;20017;-64
2023/10/25 04:17:46;;;;;;;16.95;10.52;;;;;;;;;;5027380;28;20021;-63
2023/10/25 04:20:11;;;;;;;22.10;11.88;;;;;;;;;;5021872;28;20028;-64
2023/10/25 04:22:36;;;;;;;21.75;10.60;;;;;;;;;;5030749;28;20013;-65
2023/10/25 04:25:03;;;;;;;22.17;11.20;;;;;;;;;;5029798;28;20481;-66
2023/10/25 04:27:28;;;;;;;19.52;10.40;;;;;;;;;;5025887;28;20021;-65
2023/10/25 04:29:54;;;;;;;23.88;12.15;;;;;;;;;;5029118;28;20236;-65
2023/10/25 04:32:19;;;;;;;20.42;11.65;;;;;;;;;;5030613;28;20043;-64
2023/10/25 04:34:44;;;;;;;24.50;12.25;;;;;;;;;;5034539;28;20048;-64
2023/10/25 04:37:10;;;;;;;17.88;10.75;;;;;;;;;;5008134;28;20018;-65
2023/10/25 04:39:35;;;;;;;21.60;10.57;;;;;;;;;;5030426;28;20048;-63
2023/10/25 04:42:00;;;;;;;29.95;11.60;;;;;;;;;;5027396;28;20125;-63
2023/10/25 04:44:27;;;;;;;24.02;11.40;;;;;;;;;;5028256;28;20009;-65
2023/10/25 04:46:52;;;;;;;22.75;11.02;;;;;;;;;;5027946;28;20096;-65
2023/10/25 04:49:17;;;;;;;18.20;11.20;;;;;;;;;;5028421;28;20560;-67
2023/10/25 04:51:43;;;;;;;19.67;11.45;;;;;;;;;;5027466;28;20021;-64
2023/10/25 04:54:08;;;;;;;19.35;10.70;;;;;;;;;;5010035;28;20025;-65
2023/10/25 04:56:33;;;;;;;20.08;11.68;;;;;;;;;;5026393;28;20028;-66
2023/10/25 04:58:58;;;;;;;17.98;9.75;;;;;;;;;;5026368;28;20400;-64
2023/10/25 05:01:24;;;;;;;22.30;10.27;;;;;;;;;;5030133;28;20611;-66
2023/10/25 05:03:49;;;;;;;18.58;10.90;;;;;;;;;;5018264;28;20381;-66
2023/10/25 05:06:14;;;;;;;25.23;11.13;;;;;;;;;;5021851;28;20605;-63
2023/10/25 05:08:40;;;;;;;18.90;10.65;;;;;;;;;;5029505;28;20029;-65
2023/10/25 05:11:05;;;;;;;23.25;11.57;;;;;;;;;;5032901;28;20366;-63
2023/10/25 05:13:31;;;;;;;19.33;11.30;;;;;;;;;;5029623;28;20075;-65
2023/10/25 05:15:56;;;;;;;18.25;10.15;;;;;;;;;;5030710;28;20025;-64
2023/10/25 05:18:22;;;;;;;19.55;11.18;;;;;;;;;;5029794;28;20026;-66
2023/10/25 05:20:56;;;;;;;18.80;9.75;;;;;;;;;;5030011;28;20041;-64
2023/10/25 05:23:22;;;;;;;21.00;10.95;;;;;;;;;;5029400;28;20044;-65
2023/10/25 05:25:47;;;;;;;17.15;10.00;;;;;;;;;;5028261;28;20017;-64
2023/10/25 05:28:13;;;;;;;24.38;9.65;;;;;;;;;;5011037;28;20044;-66
2023/10/25 05:30:38;;;;;;;16.45;9.85;;;;;;;;;;5028742;28;20013;-61
2023/10/25 05:33:06;;;;;;;19.65;10.55;;;;;;;;;;5029005;28;20519;-61
2023/10/25 05:35:31;;;;;;;19.17;10.75;;;;;;;;;;5028650;28;20021;-63
2023/10/25 05:37:56;;;;;;;20.00;9.98;;;;;;;;;;5028935;28;20086;-64
2023/10/25 05:40:22;;;;;;;17.00;9.60;;;;;;;;;;5028295;28;20040;-65
2023/10/25 05:42:48;;;;;;;16.58;9.48;;;;;;;;;;5029123;28;20449;-67
2023/10/25 05:45:14;;;;;;;16.70;9.85;;;;;;;;;;5028383;28;20046;-63
2023/10/25 05:47:40;;;;;;;19.13;8.32;;;;;;;;;;5028273;28;20014;-65
2023/10/25 05:50:06;;;;;;;20.00;9.23;;;;;;;;;;5027971;28;20036;-62
2023/10/25 05:52:32;;;;;;;19.52;9.05;;;;;;;;;;5028584;28;20022;-65
2023/10/25 05:54:58;;;;;;;16.98;8.48;;;;;;;;;;5027605;28;20104;-66
2023/10/25 05:57:23;;;;;;;14.75;8.68;;;;;;;;;;5027753;28;20100;-61
2023/10/25 05:59:48;;;;;;;14.02;7.50;;;;;;;;;;5027754;28;20071;-64
2023/10/25 06:02:14;;;;;;;13.57;7.72;;;;;;;;;;5027709;28;20021;-64
2023/10/25 06:04:40;;;;;;;14.40;7.90;;;;;;;;;;5026567;28;20013;-66
2023/10/25 06:07:06;;;;;;;18.58;8.85;;;;;;;;;;5027079;28;20521;-63
2023/10/25 06:09:32;;;;;;;15.93;8.43;;;;;;;;;;5028622;28;20100;-65
2023/10/25 06:11:57;;;;;;;18.73;8.75;;;;;;;;;;5026651;28;20017;-65
2023/10/25 06:14:22;;;;;;;18.50;10.65;;;;;;;;;;5028441;28;20030;-62
2023/10/25 06:16:48;;;;;;;20.85;10.13;;;;;;;;;;5025610;28;20021;-68
2023/10/25 06:19:13;;;;;;;12.88;8.20;;;;;;;;;;5027672;28;20017;-65
2023/10/25 06:21:38;;;;;;;17.55;9.27;;;;;;;;;;5023063;28;20021;-66
2023/10/25 06:24:03;;;;;;;49.22;22.73;;;;;;;;;;5024199;28;20530;-65
2023/10/25 06:26:29;;;;;;;17.55;9.75;;;;;;;;;;5009422;28;20017;-64
2023/10/25 06:28:54;;;;;;;16.73;9.15;;;;;;;;;;5022863;28;20032;-62
2023/10/25 06:31:19;;;;;;;17.80;8.60;;;;;;;;;;5027513;28;20523;-66
2023/10/25 06:33:44;;;;;;;21.27;8.50;;;;;;;;;;5029163;28;20022;-64
2023/10/25 06:36:10;;;;;;;20.67;9.23;;;;;;;;;;5025645;28;20021;-65
2023/10/25 06:38:35;;;;;;;19.05;9.68;;;;;;;;;;5023413;28;20021;-64
2023/10/25 06:41:01;;;;;;;19.48;9.13;;;;;;;;;;5022252;28;20033;-67
2023/10/25 06:43:30;;;;;;;16.00;9.55;;;;;;;;;;5027062;28;20104;-65
2023/10/25 06:45:55;;;;;;;17.80;10.02;;;;;;;;;;5023291;28;20582;-63
2023/10/25 06:48:20;;;;;;;15.52;8.20;;;;;;;;;;5027610;28;20025;-65
2023/10/25 06:50:46;;;;;;;16.20;8.65;;;;;;;;;;5026717;28;20021;-66
2023/10/25 06:53:12;;;;;;;19.42;8.93;;;;;;;;;;5027446;28;20022;-61
2023/10/25 06:55:37;;;;;;;18.13;7.90;;;;;;;;;;5026577;28;20013;-65
2023/10/25 06:58:03;;;;;;;15.00;7.95;;;;;;;;;;5028232;28;20024;-66
2023/10/25 07:00:28;;;;;;;37.10;11.40;;;;;;;;;;5030886;28;20817;-65
2023/10/25 07:02:56;;;;;;;27.50;11.00;;;;;;;;;;5031841;28;20041;-63
2023/10/25 07:05:23;;;;;;;25.10;9.50;;;;;;;;;;5030948;28;20018;-62
2023/10/25 07:07:51;;;;;;;31.88;10.77;;;;;;;;;;5031761;28;20013;-65
2023/10/25 07:10:17;;;;;;;20.40;8.70;;;;;;;;;;5013149;28;20485;-65
2023/10/25 07:12:42;;;;;;;17.25;8.48;;;;;;;;;;5031266;28;20055;-64
2023/10/25 07:15:08;;;;;;;17.33;8.05;;;;;;;;;;5025013;28;20056;-66
2023/10/25 07:17:34;;;;;;;21.48;9.73;;;;;;;;;;5032262;28;20041;-62
2023/10/25 07:19:59;;;;;;;49.17;12.43;;;;;;;;;;5031932;28;20144;-65
2023/10/25 07:22:26;;;;;;;25.05;12.13;;;;;;;;;;5027495;28;20056;-65
2023/10/25 07:24:51;;;;;;;25.27;11.32;;;;;;;;;;5030190;28;20155;-63
2023/10/25 07:27:16;;;;;;;21.50;9.52;;;;;;;;;;5030562;28;20608;-66
2023/10/25 07:29:41;;;;;;;17.80;9.05;;;;;;;;;;5029552;28;20021;-64
2023/10/25 07:32:06;;;;;;;17.08;9.60;;;;;;;;;;5030705;28;20072;-65
2023/10/25 07:34:32;;;;;;;24.02;11.48;;;;;;;;;;5029468;28;20031;-65
2023/10/25 07:36:57;;;;;;;23.08;10.30;;;;;;;;;;5030822;28;20100;-65
2023/10/25 07:39:22;;;;;;;22.20;10.13;;;;;;;;;;5030027;28;20024;-64
2023/10/25 07:41:47;;;;;;;17.05;8.55;;;;;;;;;;5034943;22;20067;-66
2023/10/25 07:44:13;;;;;;;22.60;7.93;;;;;;;;;;5010853;28;20022;-68
2023/10/25 07:46:38;;;;;;;17.27;8.10;;;;;;;;;;5009081;28;20077;-67
2023/10/25 07:49:03;;;;;;;13.57;7.38;;;;;;;;;;5008319;28;20121;-65
2023/10/25 07:51:28;;;;;;;15.25;7.28;;;;;;;;;;5020876;28;20013;-68
2023/10/25 07:53:54;;;;;;;14.85;8.52;;;;;;;;;;5028367;28;20088;-66
2023/10/25 07:56:19;;;;;;;12.07;6.85;;;;;;;;;;5026312;28;20029;-66
2023/10/25 07:58:45;;;;;;;10.95;6.15;;;;;;;;;;5027749;28;20026;-67
2023/10/25 08:01:11;;;;;;;15.65;5.97;;;;;;;;;;5029064;28;20516;-67
2023/10/25 08:03:36;;;;;;;8.75;5.38;;;;;;;;;;5027578;28;20021;-67
2023/10/25 08:06:02;;;;;;;10.25;5.85;;;;;;;;;;5028573;28;20017;-67
2023/10/25 08:08:27;;;;;;;12.02;5.88;;;;;;;;;;5021075;28;20017;-69
2023/10/25 08:11:03;;;;;;;16.92;5.55;;;;;;;;;;5027211;28;20108;-66
2023/10/25 08:13:29;;;;;;;11.35;5.90;;;;;;;;;;5028405;28;20025;-66
2023/10/25 08:15:58;;;;;;;12.73;5.65;;;;;;;;;;5020947;28;20428;-66
2023/10/25 08:18:23;;;;;;;10.00;5.15;;;;;;;;;;5028094;28;20017;-66
2023/10/25 08:20:48;;;;;;;8.95;5.28;;;;;;;;;;5026397;28;20029;-67
2023/10/25 08:23:13;;;;;;;9.25;4.18;;;;;;;;;;5028424;28;20040;-66
2023/10/25 08:25:39;;;;;;;11.10;5.07;;;;;;;;;;5025505;28;20025;-67
2023/10/25 08:28:04;;;;;;;8.55;4.90;;;;;;;;;;5026878;28;20017;-66
2023/10/25 08:30:29;;;;;;;6.80;3.65;;;;;;;;;;5027851;28;20645;-65
2023/10/25 08:32:54;;;;;;;7.45;4.05;;;;;;;;;;5027526;28;20087;-66
2023/10/25 08:35:19;;;;;;;7.18;3.83;;;;;;;;;;5028050;28;20055;-66
2023/10/25 08:37:45;;;;;;;7.45;3.63;;;;;;;;;;5026656;28;20044;-67
2023/10/25 08:40:10;;;;;;;8.52;3.00;;;;;;;;;;5008249;28;20018;-64
2023/10/25 08:42:36;;;;;;;6.35;3.53;;;;;;;;;;5028545;28;20025;-66
2023/10/25 08:45:03;;;;;;;8.75;3.63;;;;;;;;;;5027529;28;20357;-66
2023/10/25 08:47:28;;;;;;;9.60;3.90;;;;;;;;;;5027026;28;20022;-66
2023/10/25 08:49:54;;;;;;;13.50;4.72;;;;;;;;;;5026969;28;20071;-67
2023/10/25 08:52:23;;;;;;;11.30;4.85;;;;;;;;;;5028087;28;20057;-67
2023/10/25 08:54:48;;;;;;;8.20;4.15;;;;;;;;;;5018232;28;20021;-66
2023/10/25 08:57:16;;;;;;;9.77;4.18;;;;;;;;;;5026171;28;20055;-65
2023/10/25 08:59:46;;;;;;;6.75;3.45;;;;;;;;;;5028086;28;20176;-66
2023/10/25 09:02:12;;;;;;;10.18;3.97;;;;;;;;;;5025774;28;20859;-67
2023/10/25 09:04:38;;;;;;;12.40;3.63;;;;;;;;;;5026825;28;20033;-67
2023/10/25 09:07:23;;;;;;;7.10;3.75;;;;;;;;;;5027547;28;20121;-65
2023/10/25 09:09:48;;;;;;;12.48;5.00;;;;;;;;;;5024145;28;20075;-68
2023/10/25 09:12:20;;;;;;;9.63;3.75;;;;;;;;;;5025987;28;20017;-65
2023/10/25 09:14:46;;;;;;;6.30;3.92;;;;;;;;;;5022510;28;20014;-67
2023/10/25 09:17:12;;;;;;;8.57;3.63;;;;;;;;;;5024518;28;20017;-67
2023/10/25 09:19:37;;;;;;;10.30;3.50;;;;;;;;;;5021877;28;20021;-67
2023/10/25 09:22:21;;;;;;;6.90;3.70;;;;;;;;;;5024589;28;20568;-66
2023/10/25 09:24:50;;;;;;;8.07;4.00;;;;;;;;;;5019345;28;20093;-66
2023/10/25 09:27:16;;;;;;;9.95;3.75;;;;;;;;;;5020594;28;20358;-67
2023/10/25 09:29:42;;;;;;;8.55;3.75;;;;;;;;;;5026207;28;20045;-67
2023/10/25 09:32:07;;;;;;;10.15;3.63;;;;;;;;;;5024377;28;20059;-65
2023/10/25 09:34:34;;;;;;;8.18;4.03;;;;;;;;;;5026289;28;20045;-68
2023/10/25 09:37:00;;;;;;;9.27;3.80;;;;;;;;;;5025998;28;20067;-66
2023/10/25 09:39:25;;;;;;;8.13;3.33;;;;;;;;;;5025856;28;20040;-66
2023/10/25 09:41:52;;;;;;;6.68;3.17;;;;;;;;;;5025751;28;20029;-66
2023/10/25 09:44:22;;;;;;;7.43;3.45;;;;;;;;;;5025361;28;20025;-65
2023/10/25 09:46:48;;;;;;;13.60;4.28;;;;;;;;;;5025458;28;20009;-66
2023/10/25 09:49:14;;;;;;;11.23;3.00;;;;;;;;;;5026761;28;20028;-67
2023/10/25 09:51:49;;;;;;;10.40;3.53;;;;;;;;;;5025797;28;20540;-65
2023/10/25 09:54:17;;;;;;;10.88;3.83;;;;;;;;;;5025636;28;20107;-67
2023/10/25 09:56:42;;;;;;;9.02;3.25;;;;;;;;;;5023908;28;20021;-67
2023/10/25 09:59:11;;;;;;;10.30;3.10;;;;;;;;;;5024553;28;20018;-67
2023/10/25 10:01:38;;;;;;;6.80;2.92;;;;;;;;;;5006923;28;20028;-66
2023/10/25 10:04:22;;;;;;;6.22;2.60;;;;;;;;;;5024946;28;20031;-67
2023/10/25 10:07:06;;;;;;;10.13;3.60;;;;;;;;;;5024086;28;20021;-68
2023/10/25 10:09:37;;;;;;;9.48;3.58;;;;;;;;;;5007909;28;20433;-68
2023/10/25 10:12:06;;;;;;;7.85;3.00;;;;;;;;;;5025301;28;20139;-66
2023/10/25 10:14:33;;;;;;;7.20;2.85;;;;;;;;;;5020718;28;20022;-68
2023/10/25 10:17:08;;;;;;;8.00;2.97;;;;;;;;;;5024683;28;20492;-67
2023/10/25 10:19:36;;;;;;;6.05;2.95;;;;;;;;;;5021732;28;20020;-67
2023/10/25 10:22:05;;;;;;;7.57;2.83;;;;;;;;;;5023288;28;20049;-67
2023/10/25 10:24:40;;;;;;;7.93;2.75;;;;;;;;;;5025684;28;20024;-66
2023/10/25 10:27:05;;;;;;;4.68;2.30;;;;;;;;;;5021519;28;20050;-68
2023/10/25 10:29:33;;;;;;;8.45;2.60;;;;;;;;;;5025683;28;20048;-66
2023/10/25 10:32:00;;;;;;;7.05;2.88;;;;;;;;;;5026191;28;20036;-66
2023/10/25 10:34:40;;;;;;;6.60;2.85;;;;;;;;;;5028903;28;20546;-68
2023/10/25 10:37:09;;;;;;;9.27;2.80;;;;;;;;;;5030909;28;20133;-66
2023/10/25 10:39:34;;;;;;;;;;;;;;;;;;5023994;28;20014;-67
2023/10/25 10:42:01;;;;;;;4.90;2.40;;;;;;;;;;5029797;28;19987;-67
2023/10/25 10:44:26;;;;;;;5.88;2.10;;;;;;;;;;5029553;28;20068;-66
2023/10/25 10:46:57;;;;;;;5.30;2.47;;;;;;;;;;5029251;28;20045;-67
2023/10/25 10:49:26;;;;;;;6.43;2.08;;;;;;;;;;5020372;28;20018;-66
2023/10/25 10:51:52;;;;;;;5.03;2.08;;;;;;;;;;5029656;28;20507;-66
2023/10/25 10:54:17;;;;;;;3.35;1.80;;;;;;;;;;5028474;28;20033;-69
2023/10/25 10:56:43;;;;;;;6.05;1.95;;;;;;;;;;5021972;28;20032;-66
2023/10/25 10:59:08;;;;;;;8.38;2.35;;;;;;;;;;5029370;28;20024;-67
2023/10/25 11:01:34;;;;;;;4.72;1.80;;;;;;;;;;5026493;28;20075;-67
2023/10/25 11:03:59;;;;;;;10.23;1.98;;;;;;;;;;5024304;28;20449;-68
2023/10/25 11:06:25;;;;;;;5.45;1.85;;;;;;;;;;5026573;28;20025;-66
2023/10/25 11:08:50;;;;;;;6.60;1.90;;;;;;;;;;5024138;28;20031;-68
2023/10/25 11:11:18;;;;;;;8.15;2.15;;;;;;;;;;5028753;28;20120;-67
2023/10/25 11:13:43;;;;;;;10.63;2.75;;;;;;;;;;5019511;28;20072;-69
2023/10/25 11:16:10;;;;;;;6.05;2.00;;;;;;;;;;5025446;28;20025;-68
2023/10/25 11:18:35;;;;;;;8.75;2.25;;;;;;;;;;5028814;28;20029;-67
2023/10/25 11:21:00;;;;;;;10.88;1.98;;;;;;;;;;5025143;28;20029;-66
2023/10/25 11:23:26;;;;;;;5.43;2.13;;;;;;;;;;5026120;28;21610;-67
2023/10/25 11:25:51;;;;;;;5.13;2.03;;;;;;;;;;5003881;28;20035;-65
2023/10/25 11:28:18;;;;;;;5.90;2.22;;;;;;;;;;5018433;28;20087;-68
2023/10/25 11:30:44;;;;;;;6.20;2.50;;;;;;;;;;5022853;28;20025;-66
2023/10/25 11:33:09;;;;;;;7.72;2.05;;;;;;;;;;5023683;28;20042;-69
2023/10/25 11:35:36;;;;;;;8.23;3.08;;;;;;;;;;5027978;28;20024;-67
2023/10/25 11:38:02;;;;;;;8.38;2.83;;;;;;;;;;5028795;28;20036;-67
2023/10/25 11:40:34;;;;;;;8.23;2.95;;;;;;;;;;5028424;28;20022;-68
2023/10/25 11:42:59;;;;;;;7.05;2.60;;;;;;;;;;5029058;28;20029;-69
2023/10/25 11:45:25;;;;;;;11.25;3.13;;;;;;;;;;5026622;28;20067;-68
2023/10/25 11:47:54;;;;;;;7.05;2.80;;;;;;;;;;5028528;28;20374;-68
2023/10/25 11:50:19;;;;;;;6.65;3.40;;;;;;;;;;5006966;28;20098;-68
2023/10/25 11:52:44;;;;;;;12.52;5.25;;;;;;;;;;5027487;28;20033;-70
2023/10/25 11:55:10;;;;;;;11.52;3.63;;;;;;;;;;5027834;28;20025;-67
2023/10/25 11:57:35;;;;;;;8.15;3.80;;;;;;;;;;5028263;28;20017;-68
2023/10/25 12:00:00;;;;;;;6.57;3.58;;;;;;;;;;5029333;28;20025;-69
2023/10/25 12:02:26;;;;;;;7.22;3.55;;;;;;;;;;5029463;28;20022;-69
2023/10/25 12:04:52;;;;;;;7.63;3.25;;;;;;;;;;5027773;28;20024;-66
2023/10/25 12:07:17;;;;;;;8.82;2.78;;;;;;;;;;5028692;28;20017;-67
2023/10/25 12:09:45;;;;;;;8.45;2.42;;;;;;;;;;5029498;28;20437;-67
2023/10/25 12:12:10;;;;;;;9.05;2.72;;;;;;;;;;5028153;28;20021;-66
2023/10/25 12:14:36;;;;;;;8.23;2.42;;;;;;;;;;5028927;28;20044;-66
2023/10/25 12:17:01;;;;;;;9.40;2.47;;;;;;;;;;5028137;28;20148;-65
2023/10/25 12:19:26;;;;;;;7.35;2.08;;;;;;;;;;5026196;28;21125;-67
2023/10/25 12:21:55;;;;;;;7.03;1.80;;;;;;;;;;5029601;28;20436;-68
2023/10/25 12:24:25;;;;;;;5.05;1.70;;;;;;;;;;5028116;28;20060;-67
2023/10/25 12:26:50;;;;;;;5.07;2.00;;;;;;;;;;5023185;28;20025;-68
2023/10/25 12:29:15;;;;;;;5.00;1.55;;;;;;;;;;5022013;28;20489;-67
2023/10/25 12:31:40;;;;;;;4.25;1.80;;;;;;;;;;5019889;28;20903;-65
2023/10/25 12:34:06;;;;;;;4.10;1.90;;;;;;;;;;5023624;28;20025;-67
2023/10/25 12:36:31;;;;;;;3.75;1.63;;;;;;;;;;5022217;28;20013;-67
2023/10/25 12:39:03;;;;;;;5.40;2.05;;;;;;;;;;5025516;28;20028;-68
2023/10/25 12:41:33;;;;;;;5.22;2.70;;;;;;;;;;5023883;28;20021;-69
2023/10/25 12:43:58;;;;;;;4.90;1.75;;;;;;;;;;5021200;28;20609;-69
2023/10/25 12:46:23;;;;;;;4.38;1.60;;;;;;;;;;5022946;28;20022;-68
2023/10/25 12:48:48;;;;;;;7.82;2.22;;;;;;;;;;5027731;28;20140;-69
2023/10/25 12:51:13;;;;;;;5.88;1.95;;;;;;;;;;5022247;28;20018;-68
2023/10/25 12:53:39;;;;;;;14.38;2.00;;;;;;;;;;5022185;28;20034;-68
2023/10/25 12:56:04;;;;;;;4.93;1.90;;;;;;;;;;5019101;28;20025;-68
2023/10/25 12:58:29;;;;;;;5.60;1.75;;;;;;;;;;5019176;28;20025;-69
2023/10/25 13:00:56;;;;;;;4.15;1.45;;;;;;;;;;5020095;28;20030;-69
2023/10/25 13:03:21;;;;;;;2.85;1.40;;;;;;;;;;5022249;28;20075;-66
2023/10/25 13:05:47;;;;;;;4.65;1.63;;;;;;;;;;5019514;28;20026;-67
2023/10/25 13:08:12;;;;;;;6.85;1.67;;;;;;;;;;5023498;28;20024;-67
2023/10/25 13:10:37;;;;;;;9.73;1.80;;;;;;;;;;5020567;28;20102;-66
2023/10/25 13:13:03;;;;;;;5.20;2.03;;;;;;;;;;5020983;28;20017;-70
2023/10/25 13:15:28;;;;;;;6.97;2.08;;;;;;;;;;5018319;28;20021;-67
2023/10/25 13:17:53;;;;;;;11.93;2.20;;;;;;;;;;5026991;28;20602;-69
2023/10/25 13:20:19;;;;;;;5.57;2.40;;;;;;;;;;5028869;28;20042;-68
2023/10/25 13:22:44;;;;;;;7.63;2.08;;;;;;;;;;5004950;28;20033;-67
2023/10/25 13:25:10;;;;;;;8.43;2.38;;;;;;;;;;5024839;28;20547;-66
2023/10/25 13:27:36;;;;;;;6.43;3.28;;;;;;;;;;5023846;28;20057;-67
2023/10/25 13:30:01;;;;;;;9.50;4.03;;;;;;;;;;5018140;28;20473;-68
2023/10/25 13:32:26;;;;;;;9.57;2.97;;;;;;;;;;5023898;28;20037;-69
2023/10/25 13:34:52;;;;;;;10.00;4.28;;;;;;;;;;5022277;28;20021;-67
2023/10/25 13:37:17;;;;;;;8.90;3.10;;;;;;;;;;5018563;28;20091;-69
2023/10/25 13:39:43;;;;;;;6.45;2.92;;;;;;;;;;5020047;28;20033;-67
2023/10/25 13:42:09;;;;;;;7.88;2.50;;;;;;;;;;5026613;23;20092;-64
2023/10/25 13:44:35;;;;;;;7.57;3.22;;;;;;;;;;5003970;28;20425;-67
2023/10/25 13:47:00;;;;;;;8.88;3.33;;;;;;;;;;5002727;28;20022;-66
2023/10/25 13:49:25;;;;;;;4.95;2.67;;;;;;;;;;4984266;28;20113;-66
2023/10/25 13:51:51;;;;;;;6.07;1.90;;;;;;;;;;5008122;28;20014;-66
2023/10/25 13:54:16;;;;;;;10.45;3.13;;;;;;;;;;5011711;28;20022;-65
2023/10/25 13:56:41;;;;;;;5.20;1.80;;;;;;;;;;5012753;28;20354;-69
2023/10/25 13:59:06;;;;;;;8.95;1.77;;;;;;;;;;5009941;28;20428;-67
2023/10/25 14:01:32;;;;;;;3.92;1.58;;;;;;;;;;5014925;28;20017;-67
2023/10/25 14:04:02;;;;;;;7.32;1.83;;;;;;;;;;5007063;28;20030;-65
2023/10/25 14:06:28;;;;;;;6.45;1.65;;;;;;;;;;5015938;28;20022;-68
2023/10/25 14:08:53;;;;;;;4.43;1.58;;;;;;;;;;5010012;28;20068;-64
2023/10/25 14:11:18;;;;;;;3.70;1.40;;;;;;;;;;5010763;28;20018;-66
2023/10/25 14:13:45;;;;;;;5.65;2.22;;;;;;;;;;5011970;28;20032;-66
2023/10/25 14:16:11;;;;;;;8.23;2.50;;;;;;;;;;5010500;28;20106;-65
2023/10/25 14:18:36;;;;;;;8.23;2.72;;;;;;;;;;5013099;28;20014;-64
2023/10/25 14:21:02;;;;;;;8.65;1.77;;;;;;;;;;5006910;28;20070;-67
2023/10/25 14:23:28;;;;;;;7.43;1.80;;;;;;;;;;5019135;28;20033;-67